Time;durP1;ratioP1;P1;durP2;ratioP2;P2;SDS_P1;SDS_P2;PMS_P1;PMS_P2;Temp;Humidity;BMP_temperature;BMP_pressure;BME280_temperature;BME280_humidity;BME280_pressure;Samples;Min_cycle;Max_cycle;Signal;HPM_P1;HPM_P2
2022/05/16 00:01:37;;;;;;;5.57;5.07;;;15.50;90.40;;;;;;4999950;28;20530;-52
2022/05/16 00:04:04;;;;;;;7.27;5.77;;;15.20;90.90;;;;;;5006227;28;20479;-52
2022/05/16 00:06:31;;;;;;;7.20;6.53;;;15.20;91.70;;;;;;5006849;28;20480;-52
2022/05/16 00:08:58;;;;;;;11.00;5.67;;;15.10;92.40;;;;;;4995135;28;20480;-56
2022/05/16 00:11:25;;;;;;;8.10;5.70;;;15.10;92.30;;;;;;5001926;28;20485;-56
2022/05/16 00:13:52;;;;;;;7.77;5.90;;;15.20;91.90;;;;;;5006605;28;20503;-56
2022/05/16 00:16:20;;;;;;;7.73;6.17;;;15.30;91.60;;;;;;5003618;28;20504;-56
2022/05/16 00:18:47;;;;;;;9.50;5.37;;;15.30;91.70;;;;;;5005236;28;20560;-56
2022/05/16 00:21:13;;;;;;;5.60;5.07;;;15.30;92.00;;;;;;5007674;28;21067;-56
2022/05/16 00:23:40;;;;;;;7.03;6.17;;;15.40;92.00;;;;;;5007032;28;20477;-56
2022/05/16 00:26:07;;;;;;;8.30;7.27;;;15.20;92.90;;;;;;5011912;28;20517;-56
2022/05/16 00:28:33;;;;;;;7.33;6.63;;;15.10;93.60;;;;;;5007814;28;20887;-55
2022/05/16 00:31:00;;;;;;;7.90;5.80;;;15.00;93.80;;;;;;5006762;28;20485;-57
2022/05/16 00:33:28;;;;;;;5.77;5.20;;;15.00;94.10;;;;;;5009108;28;20476;-57
2022/05/16 00:35:55;;;;;;;6.43;5.90;;;15.10;93.60;;;;;;5013676;28;20492;-56
2022/05/16 00:38:21;;;;;;;6.93;5.67;;;15.20;93.30;;;;;;5010410;28;20888;-57
2022/05/16 00:40:48;;;;;;;6.33;5.70;;;15.40;93.30;;;;;;5015184;28;20975;-56
2022/05/16 00:43:35;;;;;;;7.40;5.70;;;15.50;92.60;;;;;;5016983;28;20492;-56
2022/05/16 00:46:02;;;;;;;6.00;5.33;;;15.60;92.50;;;;;;5018944;28;20493;-56
2022/05/16 00:48:30;;;;;;;10.20;5.80;;;15.60;92.10;;;;;;5022430;28;20484;-56
2022/05/16 00:50:56;;;;;;;7.20;6.50;;;15.70;92.30;;;;;;5019567;28;20546;-56
2022/05/16 00:53:23;;;;;;;11.50;5.90;;;15.80;92.00;;;;;;5021395;28;20595;-56
2022/05/16 00:55:50;;;;;;;6.70;6.10;;;15.80;92.20;;;;;;5019541;28;20483;-56
2022/05/16 00:58:17;;;;;;;5.97;5.40;;;16.00;91.90;;;;;;5022090;28;20468;-56
2022/05/16 01:00:46;;;;;;;9.80;5.70;;;16.10;92.20;;;;;;5020975;28;20491;-56
2022/05/16 01:06:03;;;;;;;6.43;5.83;;;16.10;91.70;;;;;;5017851;28;20566;-56
2022/05/16 01:08:33;;;;;;;8.30;5.40;;;16.00;91.60;;;;;;5012102;28;20815;-57
2022/05/16 01:11:04;;;;;;;8.40;5.70;;;16.10;91.40;;;;;;5029376;28;20753;-56
2022/05/16 01:13:32;;;;;;;5.80;5.30;;;16.10;91.70;;;;;;5019130;28;20485;-56
2022/05/16 01:16:00;;;;;;;10.73;6.23;;;16.20;91.70;;;;;;5007463;28;20496;-56
2022/05/16 01:18:28;;;;;;;7.90;5.73;;;16.20;91.90;;;;;;5035187;28;20556;-56
2022/05/16 01:21:16;;;;;;;6.13;5.63;;;16.20;91.90;;;;;;5019503;28;21036;-56
2022/05/16 01:23:47;;;;;;;7.73;5.97;;;16.10;92.60;;;;;;5018834;28;20811;-56
2022/05/16 01:26:17;;;;;;;8.77;5.73;;;16.00;92.90;;;;;;5019720;28;20496;-56
2022/05/16 01:28:45;;;;;;;8.00;5.70;;;16.10;93.10;;;;;;5020292;28;20996;-56
2022/05/16 01:31:12;;;;;;;6.20;5.43;;;16.10;92.90;;;;;;5022571;28;20484;-56
2022/05/16 01:33:38;;;;;;;7.57;6.77;;;16.10;93.80;;;;;;5019802;28;20491;-57
2022/05/16 01:36:06;;;;;;;6.97;6.37;;;16.10;93.60;;;;;;5018839;28;20706;-56
2022/05/16 01:38:33;;;;;;;6.63;6.03;;;16.20;93.30;;;;;;5021685;28;20538;-56
2022/05/16 01:41:04;;;;;;;8.67;6.50;;;16.30;93.10;;;;;;5019762;28;20481;-56
2022/05/16 01:43:33;;;;;;;7.13;6.10;;;16.40;93.00;;;;;;5008657;28;20487;-57
2022/05/16 01:46:00;;;;;;;7.70;6.50;;;16.50;92.80;;;;;;5031320;28;20515;-57
2022/05/16 01:48:30;;;;;;;6.93;6.20;;;16.50;92.90;;;;;;5018324;28;20481;-57
2022/05/16 01:50:59;;;;;;;6.93;6.20;;;16.50;93.10;;;;;;5019787;28;20508;-56
2022/05/16 01:53:26;;;;;;;7.00;6.30;;;16.60;92.80;;;;;;5009293;28;20475;-57
2022/05/16 01:55:53;;;;;;;7.10;6.37;;;16.60;93.20;;;;;;4995814;28;20489;-57
2022/05/16 01:58:21;;;;;;;11.00;7.80;;;16.50;93.30;;;;;;5001294;28;20930;-57
2022/05/16 02:00:48;;;;;;;7.90;6.57;;;16.60;92.90;;;;;;4998711;28;20957;-57
2022/05/16 02:03:15;;;;;;;6.83;6.23;;;16.60;93.10;;;;;;4995936;28;20889;-57
2022/05/16 02:05:43;;;;;;;9.10;7.53;;;16.60;93.20;;;;;;5000326;28;20489;-57
2022/05/16 02:08:09;;;;;;;6.80;6.20;;;16.50;94.00;;;;;;4991462;28;20528;-57
2022/05/16 02:10:36;;;;;;;7.30;6.60;;;16.50;93.80;;;;;;5001547;28;20496;-57
2022/05/16 02:13:04;;;;;;;11.13;6.07;;;16.50;93.50;;;;;;4999709;28;20493;-57
2022/05/16 02:15:33;;;;;;;8.10;7.20;;;16.50;93.50;;;;;;4999216;28;20556;-56
2022/05/16 02:18:00;;;;;;;7.50;6.80;;;16.60;93.30;;;;;;4999938;28;20482;-58
2022/05/16 02:20:27;;;;;;;8.27;6.50;;;16.60;93.70;;;;;;4997605;28;20532;-58
2022/05/16 02:25:42;;;;;;;8.50;5.87;;;16.60;93.50;;;;;;4997480;28;20488;-58
2022/05/16 02:28:10;;;;;;;7.23;6.20;;;16.60;93.60;;;;;;4996627;28;20490;-58
2022/05/16 02:30:39;;;;;;;9.07;7.27;;;16.60;93.50;;;;;;4994085;28;20483;-58
2022/05/16 02:33:06;;;;;;;8.93;6.97;;;16.60;93.60;;;;;;4998902;28;20477;-57
2022/05/16 02:35:33;;;;;;;7.30;6.30;;;16.70;93.20;;;;;;5003928;28;20488;-57
2022/05/16 02:37:59;;;;;;;6.67;6.10;;;16.70;93.10;;;;;;5014845;28;20933;-57
2022/05/16 02:40:27;;;;;;;6.70;6.10;;;16.70;93.10;;;;;;5020686;28;20618;-57
2022/05/16 02:42:54;;;;;;;7.60;6.90;;;16.80;92.90;;;;;;5016716;28;20480;-57
2022/05/16 02:45:21;;;;;;;8.70;7.57;;;16.80;93.10;;;;;;5020628;28;20480;-56
2022/05/16 02:47:49;;;;;;;6.93;6.43;;;16.90;93.30;;;;;;5019202;28;20549;-57
2022/05/16 02:50:16;;;;;;;6.80;5.80;;;16.90;93.30;;;;;;5020783;28;20547;-57
2022/05/16 02:52:43;;;;;;;7.07;6.40;;;16.90;92.70;;;;;;5018731;28;20472;-57
2022/05/16 02:55:10;;;;;;;7.40;6.80;;;17.00;92.60;;;;;;5018302;28;21624;-57
2022/05/16 02:57:37;;;;;;;6.43;5.93;;;17.00;92.40;;;;;;5019297;28;20488;-57
2022/05/16 03:00:06;;;;;;;6.57;5.90;;;17.10;92.20;;;;;;5008480;28;20488;-58
2022/05/16 03:02:33;;;;;;;6.70;6.00;;;17.10;92.50;;;;;;5026579;28;21004;-58
2022/05/16 03:05:01;;;;;;;6.70;6.20;;;17.10;92.50;;;;;;5016606;28;20547;-58
2022/05/16 03:07:27;;;;;;;10.07;6.90;;;17.00;92.80;;;;;;5020178;28;20477;-58
2022/05/16 03:09:54;;;;;;;8.83;6.33;;;17.00;92.80;;;;;;5013275;28;20474;-58
2022/05/16 03:12:21;;;;;;;11.10;6.97;;;17.00;92.90;;;;;;5017797;28;20483;-58
2022/05/16 03:14:47;;;;;;;10.43;7.63;;;17.00;93.60;;;;;;5012288;28;20797;-58
2022/05/16 03:17:14;;;;;;;7.67;7.07;;;17.00;94.00;;;;;;4998350;28;20489;-58
2022/05/16 03:19:41;;;;;;;6.63;6.13;;;17.00;93.80;;;;;;4979281;28;20513;-58
2022/05/16 03:22:09;;;;;;;9.77;7.27;;;17.10;93.60;;;;;;4988419;28;20488;-58
2022/05/16 03:24:36;;;;;;;7.97;7.23;;;17.10;93.80;;;;;;4979610;28;20488;-58
2022/05/16 03:27:05;;;;;;;7.67;6.87;;;17.10;94.30;;;;;;4993752;28;20485;-58
2022/05/16 03:29:32;;;;;;;9.30;7.40;;;17.10;93.90;;;;;;4986028;28;20851;-58
2022/05/16 03:31:58;;;;;;;7.90;7.13;;;17.20;93.90;;;;;;4988029;28;20482;-58
2022/05/16 03:34:25;;;;;;;8.20;7.40;;;17.20;93.60;;;;;;4999597;28;20494;-58
2022/05/16 03:36:52;;;;;;;7.17;6.50;;;17.10;93.70;;;;;;4994920;28;20485;-58
2022/05/16 03:42:05;;;;;;;8.60;7.20;;;17.20;93.80;;;;;;4993158;28;20632;-58
2022/05/16 03:44:32;;;;;;;7.90;7.10;;;17.20;93.90;;;;;;4988137;28;20522;-58
2022/05/16 03:46:59;;;;;;;8.63;7.07;;;17.20;93.80;;;;;;5005304;28;20480;-58
2022/05/16 03:49:26;;;;;;;9.80;7.43;;;17.30;93.90;;;;;;5011223;28;20520;-58
2022/05/16 03:51:53;;;;;;;8.40;7.00;;;17.30;93.90;;;;;;4991006;28;20881;-58
2022/05/16 03:54:21;;;;;;;11.23;6.63;;;17.30;94.00;;;;;;5016006;28;20488;-58
2022/05/16 03:56:48;;;;;;;8.30;6.93;;;17.30;93.90;;;;;;5012423;28;20586;-59
2022/05/16 03:59:14;;;;;;;10.90;8.30;;;17.40;94.00;;;;;;5007198;28;20481;-58
2022/05/16 04:01:41;;;;;;;8.80;8.00;;;17.40;94.10;;;;;;4990163;28;20499;-59
2022/05/16 04:04:08;;;;;;;9.70;7.03;;;17.50;94.40;;;;;;4996035;28;20487;-60
2022/05/16 04:06:36;;;;;;;11.30;7.33;;;17.60;94.50;;;;;;4958839;28;20481;-59
2022/05/16 04:09:03;;;;;;;7.40;6.70;;;17.70;94.20;;;;;;4976446;28;21072;-58
2022/05/16 04:11:34;;;;;;;10.47;6.77;;;17.80;94.20;;;;;;5001378;28;20885;-59
2022/05/16 04:14:01;;;;;;;9.67;6.80;;;17.90;94.10;;;;;;4995706;28;21034;-59
2022/05/16 04:16:27;;;;;;;8.57;6.67;;;18.00;93.90;;;;;;5018189;28;21005;-59
2022/05/16 04:18:54;;;;;;;13.07;7.77;;;18.10;93.80;;;;;;4992984;28;20929;-59
2022/05/16 04:21:21;;;;;;;8.20;6.90;;;18.20;93.40;;;;;;5006159;28;20476;-59
2022/05/16 04:23:47;;;;;;;10.63;5.90;;;18.30;93.30;;;;;;5006223;28;20480;-59
2022/05/16 04:26:14;;;;;;;8.13;6.93;;;18.40;93.00;;;;;;4987471;28;20951;-58
2022/05/16 04:28:42;;;;;;;8.90;6.47;;;18.50;92.80;;;;;;5002509;28;20488;-59
2022/05/16 04:31:09;;;;;;;8.80;7.20;;;18.50;92.50;;;;;;5016178;28;20783;-59
2022/05/16 04:33:35;;;;;;;8.93;6.00;;;18.60;92.30;;;;;;4988712;28;20504;-58
2022/05/16 04:36:03;;;;;;;7.13;6.40;;;18.70;92.40;;;;;;4992131;28;20590;-57
2022/05/16 04:38:30;;;;;;;6.90;6.20;;;18.80;92.10;;;;;;4994208;28;20481;-58
2022/05/16 04:43:38;;;;;;;7.60;6.27;;;18.80;91.80;;;;;;4960395;28;20853;-58
2022/05/16 04:46:07;;;;;;;17.73;6.90;;;18.80;91.60;;;;;;4998887;28;20485;-57
2022/05/16 04:48:34;;;;;;;10.23;6.67;;;18.90;91.50;;;;;;5016354;28;20492;-58
2022/05/16 04:51:01;;;;;;;12.23;6.00;;;18.90;91.50;;;;;;5025387;28;21452;-57
2022/05/16 04:53:27;;;;;;;11.10;6.00;;;19.00;90.90;;;;;;5020328;28;20479;-57
2022/05/16 04:55:54;;;;;;;12.87;6.10;;;19.00;91.10;;;;;;4993039;28;20492;-58
2022/05/16 04:58:21;;;;;;;9.53;6.10;;;19.10;91.30;;;;;;5019578;28;20827;-58
2022/05/16 05:00:48;;;;;;;9.30;6.23;;;19.10;91.20;;;;;;5021889;28;20490;-58
2022/05/16 05:03:16;;;;;;;11.57;6.23;;;19.00;91.30;;;;;;4999010;28;20480;-58
2022/05/16 05:05:43;;;;;;;8.63;7.03;;;19.00;91.30;;;;;;5014654;28;20897;-58
2022/05/16 05:08:10;;;;;;;7.97;5.90;;;18.90;91.70;;;;;;5018123;28;20526;-58
2022/05/16 05:16:10;;;;;;;14.03;7.10;;;18.90;91.20;;;;;;5020526;28;20471;-57
2022/05/16 05:18:39;;;;;;;8.33;6.10;;;19.10;91.20;;;;;;5019731;28;20514;-58
2022/05/16 05:21:07;;;;;;;15.53;7.10;;;19.30;91.00;;;;;;5021307;28;20478;-58
2022/05/16 05:23:34;;;;;;;11.00;5.70;;;19.30;90.90;;;;;;5021555;28;20482;-59
2022/05/16 05:26:01;;;;;;;13.00;5.87;;;19.50;90.70;;;;;;5013977;28;20545;-59
2022/05/16 05:28:28;;;;;;;10.30;6.43;;;19.60;90.40;;;;;;5021424;28;20476;-58
2022/05/16 05:30:55;;;;;;;10.70;6.57;;;19.70;90.30;;;;;;5020149;28;20971;-58
2022/05/16 05:33:22;;;;;;;6.97;5.73;;;19.80;89.10;;;;;;5022835;28;20501;-58
2022/05/16 05:35:50;;;;;;;18.30;5.80;;;19.90;88.40;;;;;;5014158;28;20943;-57
2022/05/16 05:38:16;;;;;;;11.17;6.93;;;20.00;89.30;;;;;;5021740;28;20481;-57
2022/05/16 05:40:43;;;;;;;6.53;5.60;;;20.00;89.50;;;;;;5022197;28;20479;-58
2022/05/16 05:43:10;;;;;;;12.43;5.70;;;20.10;87.80;;;;;;5020550;28;20929;-58
2022/05/16 05:45:37;;;;;;;11.53;4.93;;;20.20;88.30;;;;;;5010435;28;20480;-56
2022/05/16 05:48:05;;;;;;;7.57;5.03;;;20.20;87.40;;;;;;5019712;28;21101;-56
2022/05/16 05:50:32;;;;;;;7.70;5.33;;;20.20;86.90;;;;;;5022968;28;20491;-56
2022/05/16 05:53:00;;;;;;;10.30;6.23;;;20.40;87.00;;;;;;5020091;28;20500;-56
2022/05/16 05:55:27;;;;;;;12.47;5.70;;;20.50;86.20;;;;;;5018616;28;20488;-56
2022/05/16 05:57:54;;;;;;;8.97;5.80;;;20.50;87.20;;;;;;5020355;28;20494;-56
2022/05/16 06:00:21;;;;;;;10.63;5.57;;;20.60;86.30;;;;;;5022055;28;20487;-57
2022/05/16 06:02:48;;;;;;;13.20;5.40;;;20.60;86.00;;;;;;5018682;28;20485;-57
2022/05/16 06:05:18;;;;;;;12.03;6.30;;;20.60;85.30;;;;;;5016430;28;20495;-56
2022/05/16 06:07:45;;;;;;;10.13;5.27;;;20.50;85.40;;;;;;5018064;28;20618;-56
2022/05/16 06:10:13;;;;;;;7.60;4.80;;;20.50;85.00;;;;;;5020014;28;21130;-56
2022/05/16 06:12:40;;;;;;;10.07;5.70;;;20.60;86.40;;;;;;5017345;28;20484;-58
2022/05/16 06:15:09;;;;;;;9.13;5.50;;;20.60;84.90;;;;;;4997905;28;20976;-57
2022/05/16 06:17:36;;;;;;;9.63;5.57;;;20.60;84.90;;;;;;4990622;28;20585;-55
2022/05/16 06:20:03;;;;;;;9.07;5.27;;;20.70;85.30;;;;;;5007434;28;20945;-55
2022/05/16 06:22:34;;;;;;;12.13;5.80;;;20.80;84.70;;;;;;4997683;28;20484;-56
2022/05/16 06:27:46;;;;;;;11.63;5.77;;;21.00;83.30;;;;;;5000489;28;20492;-57
2022/05/16 06:30:13;;;;;;;13.90;5.10;;;21.10;83.80;;;;;;4999020;28;20488;-56
2022/05/16 06:32:40;;;;;;;6.73;4.50;;;21.10;83.10;;;;;;4999846;28;20473;-56
2022/05/16 06:35:07;;;;;;;9.23;5.23;;;21.10;84.20;;;;;;4997287;28;20485;-56
2022/05/16 06:37:34;;;;;;;8.00;4.97;;;21.10;82.70;;;;;;4997298;28;20484;-55
2022/05/16 06:40:01;;;;;;;13.90;6.23;;;21.20;84.00;;;;;;4997985;28;20485;-54
2022/05/16 06:42:27;;;;;;;13.23;5.70;;;21.30;82.90;;;;;;4997838;28;20500;-56
2022/05/16 06:44:55;;;;;;;6.50;5.17;;;21.50;83.60;;;;;;4993587;28;20480;-55
2022/05/16 06:47:23;;;;;;;8.20;4.77;;;21.60;82.80;;;;;;5003210;28;20489;-54
2022/05/16 06:49:50;;;;;;;7.13;5.40;;;21.70;83.40;;;;;;4999693;28;20573;-57
2022/05/16 06:52:17;;;;;;;9.73;5.17;;;21.80;82.20;;;;;;5000439;28;20493;-55
2022/05/16 06:54:43;;;;;;;7.30;4.60;;;21.90;82.20;;;;;;5002425;28;21005;-54
2022/05/16 06:57:10;;;;;;;11.73;5.13;;;21.90;81.90;;;;;;4997643;28;20461;-57
2022/05/16 06:59:37;;;;;;;5.97;5.17;;;21.80;81.50;;;;;;4998740;28;20485;-54
2022/05/16 07:02:06;;;;;;;7.80;5.07;;;21.90;83.50;;;;;;4998983;28;20563;-56
2022/05/16 07:04:34;;;;;;;14.83;5.87;;;22.00;83.60;;;;;;4993911;28;20514;-56
2022/05/16 07:07:01;;;;;;;5.53;5.03;;;22.20;82.80;;;;;;4997131;28;20932;-57
2022/05/16 07:09:28;;;;;;;10.93;5.53;;;22.40;84.30;;;;;;4998625;28;20490;-57
2022/05/16 07:11:54;;;;;;;9.70;5.20;;;22.60;84.20;;;;;;4997812;28;20485;-57
2022/05/16 07:14:21;;;;;;;7.10;4.83;;;22.80;84.60;;;;;;4997173;28;20644;-59
2022/05/16 07:16:48;;;;;;;13.70;4.90;;;22.80;81.40;;;;;;4995653;28;20532;-57
2022/05/16 07:19:16;;;;;;;10.40;4.33;;;22.90;82.40;;;;;;4993651;28;20595;-57
2022/05/16 07:21:43;;;;;;;7.00;5.17;;;23.00;81.60;;;;;;4965096;28;20500;-58
2022/05/16 07:24:09;;;;;;;16.57;4.70;;;23.00;81.60;;;;;;4977483;28;20520;-56
2022/05/16 07:29:21;;;;;;;12.20;5.80;;;22.80;82.10;;;;;;4990252;28;20581;-55
2022/05/16 07:31:47;;;;;;;9.93;5.07;;;23.00;83.00;;;;;;4977492;28;20489;-56
2022/05/16 07:34:15;;;;;;;13.73;5.30;;;23.00;83.50;;;;;;5006834;28;20476;-55
2022/05/16 07:36:42;;;;;;;10.80;6.67;;;23.00;83.10;;;;;;4997105;28;20488;-56
2022/05/16 07:39:09;;;;;;;11.07;5.30;;;23.20;83.10;;;;;;4979321;28;20487;-56
2022/05/16 07:41:36;;;;;;;10.90;5.20;;;23.40;83.70;;;;;;4970491;28;20719;-56
2022/05/16 07:44:03;;;;;;;15.93;5.33;;;23.50;83.40;;;;;;4981227;28;20473;-54
2022/05/16 07:46:29;;;;;;;16.90;5.60;;;23.70;83.60;;;;;;4979578;28;20549;-56
2022/05/16 07:48:56;;;;;;;9.30;5.00;;;23.80;81.30;;;;;;4981454;28;20500;-56
2022/05/16 07:51:24;;;;;;;8.10;5.03;;;23.70;80.70;;;;;;4977049;28;20498;-55
2022/05/16 07:53:51;;;;;;;9.30;5.70;;;23.40;80.80;;;;;;4984774;28;20493;-56
2022/05/16 07:56:18;;;;;;;10.30;6.47;;;23.60;82.30;;;;;;4980443;28;20571;-57
2022/05/16 07:58:44;;;;;;;7.20;5.23;;;23.60;81.20;;;;;;4977984;28;20482;-54
2022/05/16 08:01:11;;;;;;;8.20;5.60;;;23.70;81.70;;;;;;4981939;28;20493;-55
2022/05/16 08:03:38;;;;;;;8.43;4.90;;;23.70;81.20;;;;;;4983626;28;20481;-56
2022/05/16 08:06:04;;;;;;;11.33;5.77;;;23.60;81.20;;;;;;4999640;28;20478;-56
2022/05/16 08:11:17;;;;;;;9.27;5.60;;;23.80;83.50;;;;;;4996103;28;20488;-58
2022/05/16 08:13:44;;;;;;;6.70;4.20;;;23.80;82.20;;;;;;4997219;28;20539;-56
2022/05/16 08:16:12;;;;;;;6.60;5.47;;;24.00;81.80;;;;;;5001344;28;21205;-54
2022/05/16 08:18:38;;;;;;;13.20;5.10;;;23.90;82.60;;;;;;4995475;28;20493;-54
2022/05/16 08:21:05;;;;;;;10.77;5.80;;;23.70;82.20;;;;;;5001327;28;20515;-54
2022/05/16 08:23:34;;;;;;;6.13;5.47;;;23.50;82.50;;;;;;5007295;28;20481;-55
2022/05/16 08:26:04;;;;;;;7.00;3.67;;;23.50;82.80;;;;;;4995316;28;20484;-54
2022/05/16 08:28:30;;;;;;;11.23;5.37;;;23.50;82.60;;;;;;4997935;28;20562;-55
2022/05/16 08:30:57;;;;;;;10.50;5.13;;;23.60;84.30;;;;;;4998292;28;20528;-54
2022/05/16 08:33:24;;;;;;;6.10;5.10;;;23.70;83.90;;;;;;4995936;28;20486;-56
2022/05/16 08:41:24;;;;;;;9.20;4.40;;;23.70;85.20;;;;;;4993373;28;21073;-55
2022/05/16 08:43:56;;;;;;;6.17;5.27;;;23.70;85.00;;;;;;4988655;28;20488;-58
2022/05/16 08:46:34;;;;;;;8.87;5.10;;;23.80;84.60;;;;;;5001408;28;20893;-56
2022/05/16 08:49:10;;;;;;;10.03;5.17;;;24.10;86.30;;;;;;4991717;28;20570;-56
2022/05/16 08:51:38;;;;;;;9.80;3.70;;;24.30;85.00;;;;;;5004414;28;21820;-62
2022/05/16 08:54:12;;;;;;;6.40;4.70;;;24.40;83.70;;;;;;4995660;28;20930;-54
2022/05/16 08:56:44;;;;;;;19.87;5.30;;;24.60;83.40;;;;;;4999651;28;21469;-54
2022/05/16 08:59:15;;;;;;;8.57;4.60;;;24.40;83.30;;;;;;4995619;28;20477;-59
2022/05/16 09:01:51;;;;;;;7.23;4.17;;;24.30;83.70;;;;;;4987238;28;20631;-56
2022/05/16 09:04:23;;;;;;;13.50;4.50;;;24.30;83.00;;;;;;4984300;28;20464;-58
2022/05/16 09:06:57;;;;;;;13.70;4.10;;;24.20;83.40;;;;;;4989764;28;20481;-57
2022/05/16 09:09:33;;;;;;;8.60;3.83;;;24.10;83.00;;;;;;5002105;28;20477;-58
2022/05/16 09:12:06;;;;;;;5.90;2.53;;;24.10;81.90;;;;;;5001818;28;21332;-56
2022/05/16 09:14:52;;;;;;;13.13;3.37;;;24.00;81.10;;;;;;5002901;28;20492;-55
2022/05/16 09:17:25;;;;;;;11.93;4.23;;;24.00;81.50;;;;;;4986794;28;21036;-56
2022/05/16 09:20:05;;;;;;;6.10;3.17;;;24.10;83.00;;;;;;4998419;28;20534;-54
2022/05/16 09:22:38;;;;;;;5.13;3.73;;;24.20;82.60;;;;;;5002541;28;20481;-56
2022/05/16 09:25:12;;;;;;;8.63;4.10;;;24.40;83.10;;;;;;5003211;28;20486;-55
2022/05/16 09:30:25;;;;;;;7.80;3.23;;;24.60;82.90;;;;;;4988870;28;20485;-55
2022/05/16 09:32:58;;;;;;;7.20;3.00;;;24.90;83.00;;;;;;4999276;28;20484;-54
2022/05/16 09:35:32;;;;;;;4.33;3.03;;;25.10;82.40;;;;;;4997488;28;21213;-56
2022/05/16 09:37:59;;;;;;;5.37;2.63;;;25.20;81.10;;;;;;5002786;28;20796;-56
2022/05/16 09:40:34;;;;;;;13.60;3.20;;;25.40;79.70;;;;;;4998526;28;20571;-56
2022/05/16 09:43:06;;;;;;;6.63;2.37;;;25.30;81.20;;;;;;4995487;28;20477;-55
2022/05/16 09:45:35;;;;;;;8.27;2.20;;;25.30;80.00;;;;;;5002020;28;20487;-55
2022/05/16 09:48:02;;;;;;;7.30;1.73;;;25.30;78.30;;;;;;4994685;28;20484;-56
2022/05/16 09:50:29;;;;;;;7.47;2.30;;;25.20;78.10;;;;;;5002577;28;20478;-54
2022/05/16 09:53:13;;;;;;;7.37;2.70;;;25.00;80.20;;;;;;5006559;28;20542;-54
2022/05/16 09:55:47;;;;;;;4.13;3.23;;;24.50;81.10;;;;;;4994018;28;20555;-56
2022/05/16 09:58:18;;;;;;;11.97;2.63;;;24.10;81.10;;;;;;5007991;28;21062;-53
2022/05/16 10:00:53;;;;;;;9.10;2.50;;;24.10;83.10;;;;;;4998763;28;20873;-53
2022/05/16 10:03:28;;;;;;;6.37;3.30;;;24.30;84.20;;;;;;4997859;28;20488;-55
2022/05/16 10:05:57;;;;;;;10.33;3.40;;;24.00;82.80;;;;;;4996114;28;20489;-55
2022/05/16 10:08:30;;;;;;;10.80;3.27;;;23.60;82.70;;;;;;5002931;28;20536;-56
2022/05/16 10:11:00;;;;;;;10.40;3.33;;;23.40;83.00;;;;;;4995729;28;20484;-54
2022/05/16 10:13:27;;;;;;;3.27;2.70;;;23.20;84.10;;;;;;5006314;28;21040;-55
2022/05/16 10:15:56;;;;;;;5.13;2.90;;;23.00;84.20;;;;;;4997195;28;20536;-57
2022/05/16 10:18:26;;;;;;;3.33;2.10;;;23.00;85.90;;;;;;4996529;28;20933;-56
2022/05/16 10:20:58;;;;;;;7.10;2.63;;;22.90;84.00;;;;;;4996884;28;20990;-57
2022/05/16 10:23:29;;;;;;;4.20;2.50;;;22.60;83.80;;;;;;4988258;28;20477;-57
2022/05/16 10:26:03;;;;;;;7.70;2.50;;;22.60;84.30;;;;;;5000197;28;20485;-58
2022/05/16 10:28:37;;;;;;;8.50;2.50;;;22.60;85.40;;;;;;5001159;28;20881;-55
2022/05/16 10:33:53;;;;;;;6.40;2.40;;;22.40;85.10;;;;;;4997263;28;21432;-56
2022/05/16 10:36:26;;;;;;;5.20;2.30;;;22.30;85.40;;;;;;4996861;28;20940;-56
2022/05/16 10:39:00;;;;;;;11.30;2.40;;;22.20;85.40;;;;;;4996478;28;20489;-56
2022/05/16 10:41:35;;;;;;;3.00;1.90;;;22.00;86.20;;;;;;4983644;28;20481;-56
2022/05/16 10:44:12;;;;;;;4.10;2.23;;;21.90;87.00;;;;;;4993672;28;20622;-54
2022/05/16 10:46:42;;;;;;;4.13;1.97;;;21.90;86.50;;;;;;4998709;28;20487;-56
2022/05/16 10:49:13;;;;;;;4.07;1.67;;;21.80;88.20;;;;;;4998262;28;20481;-56
2022/05/16 10:51:47;;;;;;;5.20;2.53;;;21.70;88.20;;;;;;4999059;28;20969;-54
2022/05/16 10:54:18;;;;;;;9.23;2.40;;;21.40;89.50;;;;;;4999129;28;21450;-55
2022/05/16 10:57:15;;;;;;;9.77;2.53;;;21.40;89.60;;;;;;4996870;28;20991;-54
2022/05/16 11:00:00;;;;;;;5.07;2.03;;;21.20;90.10;;;;;;4994632;28;20543;-55
2022/05/16 11:02:42;;;;;;;7.50;2.57;;;20.80;90.20;;;;;;5006236;28;20521;-58
2022/05/16 11:05:23;;;;;;;4.27;2.07;;;20.30;90.80;;;;;;4998290;28;20481;-57
2022/05/16 11:08:00;;;;;;;5.90;2.47;;;20.10;91.50;;;;;;5001101;28;21182;-56
2022/05/16 11:10:32;;;;;;;5.50;2.30;;;20.00;92.00;;;;;;4997383;28;20489;-55
2022/05/16 11:13:12;;;;;;;3.20;2.47;;;19.90;92.30;;;;;;4997972;28;20485;-58
2022/05/16 11:15:44;;;;;;;5.77;2.90;;;19.50;93.20;;;;;;4996765;28;20471;-56
2022/05/16 11:18:20;;;;;;;5.23;3.00;;;19.40;94.10;;;;;;5009326;28;20487;-54
2022/05/16 11:20:52;;;;;;;11.83;3.20;;;19.30;94.80;;;;;;5001889;28;21013;-54
2022/05/16 11:23:27;;;;;;;4.80;3.27;;;19.20;96.40;;;;;;4999862;28;20483;-52
2022/05/16 11:25:59;;;;;;;7.93;2.87;;;19.10;96.70;;;;;;5001813;28;20497;-53
2022/05/16 11:28:33;;;;;;;5.73;3.00;;;19.10;97.10;;;;;;4989937;28;20978;-52
2022/05/16 11:31:04;;;;;;;5.60;2.60;;;19.10;98.20;;;;;;4996280;28;21106;-53
2022/05/16 11:33:38;;;;;;;7.57;3.13;;;19.20;98.30;;;;;;4997172;28;21105;-53
2022/05/16 11:36:10;;;;;;;3.73;2.57;;;19.20;98.00;;;;;;5000736;28;20494;-53
2022/05/16 11:38:50;;;;;;;5.30;3.50;;;19.30;98.10;;;;;;5004628;28;21182;-52
2022/05/16 11:41:39;;;;;;;10.80;2.87;;;19.40;98.70;;;;;;4996207;28;20484;-53
2022/05/16 11:44:21;;;;;;;5.63;3.30;;;19.50;98.50;;;;;;4984780;28;20486;-53
2022/05/16 11:46:53;;;;;;;7.60;3.00;;;19.50;98.30;;;;;;5010401;28;20491;-53
2022/05/16 11:49:29;;;;;;;9.10;3.60;;;19.60;98.00;;;;;;5001161;28;21059;-53
2022/05/16 11:52:24;;;;;;;7.30;2.57;;;19.70;98.60;;;;;;4994531;28;20589;-52
2022/05/16 11:54:57;;;;;;;4.17;3.33;;;19.80;98.40;;;;;;4999638;28;21239;-54
2022/05/16 12:00:33;;;;;;;6.67;3.97;;;19.60;98.50;;;;;;5000477;28;20940;-55
2022/05/16 12:03:19;;;;;;;7.00;3.27;;;19.60;99.00;;;;;;4977565;28;20960;-54
2022/05/16 12:05:49;;;;;;;5.53;3.70;;;19.80;98.90;;;;;;5001313;28;20481;-54
2022/05/16 12:08:41;;;;;;;3.60;3.23;;;19.80;98.40;;;;;;4995790;28;20481;-53
2022/05/16 12:11:19;;;;;;;4.73;3.30;;;19.80;98.40;;;;;;5003714;28;20469;-53
2022/05/16 12:14:11;;;;;;;7.00;3.30;;;19.80;99.50;;;;;;4998539;28;20554;-53
2022/05/16 12:16:53;;;;;;;5.27;3.40;;;20.00;98.90;;;;;;4989805;28;20535;-56
2022/05/16 12:19:29;;;;;;;8.80;3.33;;;20.00;98.90;;;;;;4999945;28;20637;-53
2022/05/16 12:22:02;;;;;;;4.53;3.30;;;20.00;99.30;;;;;;5005704;28;20472;-55
2022/05/16 12:24:41;;;;;;;5.93;4.80;;;20.00;99.20;;;;;;5002116;28;20485;-55
2022/05/16 12:27:12;;;;;;;6.33;3.33;;;20.20;99.30;;;;;;4994633;28;21009;-53
2022/05/16 12:29:43;;;;;;;7.40;3.93;;;20.40;99.10;;;;;;4992213;28;20982;-54
2022/05/16 12:32:22;;;;;;;8.37;3.90;;;20.70;99.10;;;;;;4994668;28;20550;-54
2022/05/16 12:34:50;;;;;;;7.93;4.37;;;20.80;98.60;;;;;;4997819;28;20565;-55
2022/05/16 12:37:19;;;;;;;7.87;4.47;;;20.80;98.80;;;;;;5003670;28;20481;-54
2022/05/16 12:40:03;;;;;;;11.70;4.70;;;20.80;98.60;;;;;;4993899;28;20485;-54
2022/05/16 12:42:51;;;;;;;5.67;4.43;;;20.70;98.30;;;;;;5001056;28;20481;-55
2022/05/16 12:45:57;;;;;;;6.63;5.13;;;20.80;99.20;;;;;;4990877;28;20491;-54
2022/05/16 12:48:49;;;;;;;5.13;4.63;;;20.80;98.60;;;;;;4989570;28;20490;-55
2022/05/16 12:51:41;;;;;;;14.50;4.77;;;20.90;98.20;;;;;;5004732;28;20611;-55
2022/05/16 12:54:20;;;;;;;8.83;4.63;;;20.80;98.20;;;;;;4997269;28;21052;-53
2022/05/16 12:56:49;;;;;;;4.80;4.37;;;20.90;98.10;;;;;;5002875;28;20472;-54
2022/05/16 12:59:34;;;;;;;6.80;3.77;;;21.00;98.30;;;;;;5003614;28;20487;-54
2022/05/16 13:02:07;;;;;;;10.70;4.50;;;21.10;98.10;;;;;;5000347;28;20491;-55
2022/05/16 13:04:49;;;;;;;11.13;5.13;;;21.00;98.40;;;;;;5003377;28;20604;-54
2022/05/16 13:07:22;;;;;;;6.47;4.93;;;21.30;98.20;;;;;;4999494;28;20490;-54
2022/05/16 13:10:01;;;;;;;7.43;4.67;;;21.40;97.80;;;;;;5004393;28;20840;-54
2022/05/16 13:12:39;;;;;;;9.70;4.40;;;21.50;97.50;;;;;;5006221;28;20473;-54
2022/05/16 13:15:10;;;;;;;6.00;4.83;;;21.50;97.20;;;;;;4992443;28;20999;-54
2022/05/16 13:17:40;;;;;;;8.63;5.47;;;21.50;97.70;;;;;;4998448;28;20481;-54
2022/05/16 13:20:13;;;;;;;8.00;5.23;;;21.40;97.70;;;;;;5000708;28;21095;-54
2022/05/16 13:22:42;;;;;;;7.10;5.67;;;21.40;97.40;;;;;;4996916;28;20803;-54
2022/05/16 13:25:10;;;;;;;7.00;6.13;;;21.40;98.00;;;;;;4997824;28;21028;-54
2022/05/16 13:30:23;;;;;;;8.23;7.03;;;21.30;97.70;;;;;;5002484;28;20484;-53
2022/05/16 13:32:50;;;;;;;9.70;6.30;;;21.20;98.00;;;;;;4991773;28;21408;-53
2022/05/16 13:35:31;;;;;;;9.03;6.00;;;20.90;98.60;;;;;;5006349;28;20492;-53
2022/05/16 13:37:59;;;;;;;6.87;4.30;;;20.80;98.80;;;;;;4996978;28;20472;-52
2022/05/16 13:40:32;;;;;;;5.13;4.60;;;20.50;99.00;;;;;;5004168;28;20544;-51